Terminal Aerodrome Forecast
Issued by NWS

Home | Current Version | Previous Version | Graphics & Text | Print | Product List | Glossary On
Versions: 1 2 3 4 5 6 7 8 9 10 11 12 13 14 15 16 17 18
000
FTUS43 KABR 040404 AAA
TAFATY
TAF AMD
KATY 040404Z 0404/0424 15010KT P6SM SCT250
      TEMPO 0409/0413 3SM BR
     FM041500 16011KT P6SM BKN100=

USA.gov is the U.S. government's official web portal to all federal, state and local government web resources and services.